createdAt,value
2019-04-11T00:00:54.057Z,2.60
2019-04-11T00:03:25.011Z,2.57
2019-04-11T00:05:55.171Z,3.10
2019-04-11T00:08:25.968Z,2.90
2019-04-11T00:10:55.929Z,2.93
2019-04-11T00:13:28.654Z,3.00
2019-04-11T00:15:57.256Z,2.60
2019-04-11T00:18:27.144Z,3.20
2019-04-11T00:20:58.187Z,3.07
2019-04-11T00:23:30.168Z,2.70
2019-04-11T00:26:00.227Z,2.60
2019-04-11T00:28:30.032Z,2.90
2019-04-11T00:31:00.812Z,2.93
2019-04-11T00:33:30.623Z,2.90
2019-04-11T00:36:00.321Z,3.43
2019-04-11T00:38:30.050Z,3.10
2019-04-11T00:40:59.790Z,2.30
2019-04-11T00:43:36.973Z,2.73
2019-04-11T00:46:04.402Z,2.83
2019-04-11T00:48:35.360Z,2.67
2019-04-11T00:51:05.509Z,2.63
2019-04-11T00:53:36.152Z,2.63
2019-04-11T00:56:08.176Z,2.73
2019-04-11T00:58:39.759Z,2.83
2019-04-11T01:01:09.618Z,2.43
2019-04-11T01:03:39.497Z,2.53
2019-04-11T01:06:10.051Z,2.87
2019-04-11T01:08:39.973Z,2.27
2019-04-11T01:11:09.947Z,3.03
2019-04-11T01:13:47.319Z,2.70
2019-04-11T01:16:30.166Z,2.53
2019-04-11T01:19:00.449Z,2.83
2019-04-11T01:21:30.639Z,2.87
2019-04-11T01:24:01.636Z,2.63
2019-04-11T01:26:32.980Z,2.87
2019-04-11T01:29:03.449Z,2.60
2019-04-11T01:31:34.450Z,2.90
2019-04-11T01:34:04.482Z,3.20
2019-04-11T01:36:35.323Z,2.60
2019-04-11T01:39:27.943Z,2.80
2019-04-11T01:41:58.670Z,2.57
2019-04-11T01:44:30.439Z,2.57
2019-04-11T01:47:00.434Z,3.03
2019-04-11T01:49:30.364Z,3.30
2019-04-11T01:52:00.258Z,3.00
2019-04-11T01:54:30.057Z,2.70
2019-04-11T01:57:01.355Z,3.00
2019-04-11T01:59:31.297Z,3.10
2019-04-11T02:02:19.232Z,2.70
2019-04-11T02:05:04.902Z,2.93
2019-04-11T02:07:34.973Z,3.33
2019-04-11T02:10:05.989Z,2.60
2019-04-11T02:12:35.769Z,2.80
2019-04-11T02:15:06.150Z,3.00
2019-04-11T02:17:36.974Z,2.83
2019-04-11T02:20:09.128Z,3.30
2019-04-11T02:22:47.084Z,3.00
2019-04-11T02:25:36.648Z,2.83
2019-04-11T02:28:08.581Z,3.03
2019-04-11T02:30:43.496Z,2.83
2019-04-11T02:33:14.122Z,2.87
2019-04-11T02:35:44.782Z,2.90
2019-04-11T02:38:16.528Z,2.50
2019-04-11T02:40:49.557Z,2.63
2019-04-11T02:43:20.426Z,2.40
2019-04-11T02:45:58.550Z,3.03
2019-04-11T02:48:22.101Z,2.90
2019-04-11T02:50:52.185Z,3.07
2019-04-11T02:53:23.632Z,3.10
2019-04-11T02:55:54.304Z,3.00
2019-04-11T02:58:25.543Z,2.73
2019-04-11T03:00:59.411Z,3.20
2019-04-11T03:03:29.237Z,2.53
2019-04-11T03:06:00.007Z,3.03
2019-04-11T03:08:34.185Z,2.93
2019-04-11T03:11:02.871Z,2.87
2019-04-11T03:13:35.299Z,2.97
2019-04-11T03:16:24.003Z,3.40
2019-04-11T03:18:54.801Z,2.67
2019-04-11T03:21:13.664Z,2.73
2019-04-11T03:23:41.618Z,3.37
2019-04-11T03:26:12.399Z,2.63
2019-04-11T03:28:49.006Z,2.97
2019-04-11T03:31:50.639Z,3.13
2019-04-11T03:34:53.404Z,2.70
2019-04-11T03:37:08.666Z,2.83
2019-04-11T03:39:11.817Z,3.40
2019-04-11T03:41:38.773Z,2.80
2019-04-11T03:44:01.887Z,3.33
2019-04-11T03:46:42.154Z,3.50
2019-04-11T03:49:06.191Z,2.80
2019-04-11T03:51:29.723Z,2.57
2019-04-11T03:54:01.119Z,3.07
2019-04-11T03:56:32.813Z,3.17
2019-04-11T03:59:04.038Z,3.20
2019-04-11T04:01:34.978Z,2.93
2019-04-11T04:04:06.410Z,3.30
2019-04-11T04:06:37.412Z,3.00
2019-04-11T04:09:08.955Z,3.00
2019-04-11T04:11:40.921Z,3.20
2019-04-11T04:14:21.504Z,3.00
2019-04-11T04:17:28.565Z,3.20
2019-04-11T04:20:10.917Z,3.07
2019-04-11T04:22:56.655Z,3.10
2019-04-11T04:25:28.438Z,3.03
2019-04-11T04:27:58.937Z,3.23
2019-04-11T04:30:29.796Z,3.53
2019-04-11T04:33:00.570Z,3.70
2019-04-11T04:35:31.668Z,3.53
2019-04-11T04:38:05.031Z,3.33
2019-04-11T04:40:51.092Z,3.70
2019-04-11T04:43:08.156Z,3.60
2019-04-11T04:45:58.352Z,3.50
2019-04-11T04:48:13.726Z,2.70
2019-04-11T04:50:42.213Z,3.33
2019-04-11T04:53:13.736Z,3.23
2019-04-11T04:55:45.723Z,3.47
2019-04-11T04:58:17.819Z,3.43
2019-04-11T05:00:51.111Z,3.77
2019-04-11T05:03:20.162Z,3.80
2019-04-11T05:05:51.074Z,3.67
2019-04-11T05:08:22.743Z,3.40
2019-04-11T05:10:53.419Z,4.00
2019-04-11T05:13:23.893Z,4.10
2019-04-11T05:16:06.930Z,3.80
2019-04-11T05:18:25.924Z,3.40
2019-04-11T05:20:56.867Z,4.10
2019-04-11T05:23:27.673Z,3.80
2019-04-11T05:25:57.581Z,3.80
2019-04-11T05:28:27.674Z,4.27
2019-04-11T05:30:58.362Z,3.97
2019-04-11T05:33:29.342Z,4.40
2019-04-11T05:36:00.432Z,4.80
2019-04-11T05:38:30.259Z,4.40
2019-04-11T05:40:59.971Z,4.20
2019-04-11T05:43:35.940Z,4.63
2019-04-11T05:46:03.533Z,4.57
2019-04-11T05:48:41.022Z,4.23
2019-04-11T05:51:11.057Z,4.23
2019-04-11T05:53:41.627Z,4.47
2019-04-11T05:56:13.894Z,5.13
2019-04-11T05:58:46.764Z,5.67
2019-04-11T06:01:20.768Z,5.00
2019-04-11T06:03:52.530Z,4.17
2019-04-11T06:06:44.603Z,4.93
2019-04-11T06:09:23.310Z,6.07
2019-04-11T06:12:11.668Z,4.93
2019-04-11T06:14:49.317Z,5.00
2019-04-11T06:17:21.786Z,5.07
2019-04-11T06:20:10.036Z,5.20
2019-04-11T06:22:47.662Z,4.80
2019-04-11T06:25:33.244Z,5.30
2019-04-11T06:28:13.871Z,4.40
2019-04-11T06:31:09.717Z,5.47
2019-04-11T06:33:44.841Z,4.70
2019-04-11T06:36:37.725Z,4.43
2019-04-11T06:39:16.699Z,4.07
2019-04-11T06:42:01.273Z,5.03
2019-04-11T06:44:50.218Z,4.63
2019-04-11T06:47:35.368Z,5.15
2019-04-11T06:50:23.229Z,4.90
2019-04-11T06:52:53.139Z,4.53
2019-04-11T06:55:40.891Z,4.58
2019-04-11T06:58:15.028Z,4.42
2019-04-11T07:00:49.905Z,4.60
2019-04-11T07:03:26.307Z,4.10
2019-04-11T07:05:57.273Z,4.58
2019-04-11T07:08:32.106Z,4.65
2019-04-11T07:11:04.720Z,3.77
2019-04-11T07:13:43.370Z,4.05
2019-04-11T07:16:14.067Z,4.05
2019-04-11T07:19:02.862Z,4.75
2019-04-11T07:21:35.528Z,4.55
2019-04-11T07:24:30.432Z,4.42
2019-04-11T07:27:05.843Z,4.28
2019-04-11T07:30:07.350Z,4.72
2019-04-11T07:32:38.737Z,4.97
2019-04-11T07:35:27.634Z,4.95
2019-04-11T07:37:58.234Z,4.50
2019-04-11T07:40:58.984Z,5.30
2019-04-11T07:43:31.558Z,4.55
2019-04-11T07:46:25.046Z,4.30
2019-04-11T07:48:59.408Z,4.70
2019-04-11T07:51:30.706Z,4.17
2019-04-11T07:54:03.357Z,4.60
2019-04-11T07:56:48.585Z,4.50
2019-04-11T07:59:51.220Z,4.58
2019-04-11T08:02:39.876Z,4.65
2019-04-11T08:05:21.609Z,4.35
2019-04-11T08:08:07.857Z,4.70
2019-04-11T08:10:43.600Z,4.22
2019-04-11T08:13:18.476Z,4.85
2019-04-11T08:16:06.479Z,5.10
2019-04-11T08:18:59.346Z,4.35
2019-04-11T08:21:51.175Z,4.55
2019-04-11T08:24:34.348Z,4.67
2019-04-11T08:27:35.832Z,4.00
2019-04-11T08:30:06.622Z,4.35
2019-04-11T08:32:56.479Z,4.90
2019-04-11T08:35:53.719Z,4.65
2019-04-11T08:38:26.595Z,4.53
2019-04-11T08:41:25.361Z,5.17
2019-04-11T08:43:55.444Z,4.65
2019-04-11T08:46:35.107Z,4.25
2019-04-11T08:49:07.824Z,4.85
2019-04-11T08:51:37.621Z,4.55
2019-04-11T08:54:33.355Z,4.97
2019-04-11T08:57:03.498Z,4.55
2019-04-11T08:59:53.469Z,5.20
2019-04-11T09:02:29.017Z,4.33
2019-04-11T09:05:19.886Z,4.92
2019-04-11T09:08:11.429Z,4.90
2019-04-11T09:11:00.126Z,4.42
2019-04-11T09:13:44.159Z,4.92
2019-04-11T09:16:33.984Z,6.72
2019-04-11T09:19:10.452Z,4.95
2019-04-11T09:21:58.336Z,5.30
2019-04-11T09:24:44.909Z,5.28
2019-04-11T09:27:32.964Z,4.92
2019-04-11T09:30:08.127Z,5.30
2019-04-11T09:32:48.978Z,5.37
2019-04-11T09:35:25.589Z,4.62
2019-04-11T09:37:55.550Z,4.72
2019-04-11T09:40:50.111Z,4.40
2019-04-11T09:43:22.332Z,4.62
2019-04-11T09:46:03.108Z,5.40
2019-04-11T09:48:51.787Z,4.03
2019-04-11T09:51:40.298Z,4.58
2019-04-11T09:54:32.261Z,4.87
2019-04-11T09:57:20.612Z,5.05
2019-04-11T10:00:22.758Z,4.30
2019-04-11T10:03:21.522Z,4.45
2019-04-11T10:06:19.352Z,4.70
2019-04-11T10:08:53.894Z,4.50
2019-04-11T10:11:55.307Z,4.17
2019-04-11T10:14:27.102Z,4.10
2019-04-11T10:17:21.321Z,4.25
2019-04-11T10:19:56.304Z,3.92
2019-04-11T10:22:48.139Z,4.65
2019-04-11T10:25:39.200Z,4.25
2019-04-11T10:28:29.710Z,3.92
2019-04-11T10:31:04.327Z,4.00
2019-04-11T10:33:57.331Z,5.12
2019-04-11T10:36:33.144Z,4.22
2019-04-11T10:39:34.458Z,4.25
2019-04-11T10:42:10.656Z,4.72
2019-04-11T10:44:58.483Z,4.30
2019-04-11T10:47:29.624Z,3.85
2019-04-11T10:50:19.558Z,4.92
2019-04-11T10:52:55.162Z,5.10
2019-04-11T10:55:44.022Z,4.45
2019-04-11T10:58:18.442Z,4.97
2019-04-11T11:01:07.564Z,4.87
2019-04-11T11:04:13.770Z,3.87
2019-04-11T11:06:46.555Z,4.35
2019-04-11T11:09:36.014Z,4.65
2019-04-11T11:12:23.850Z,5.20
2019-04-11T11:15:07.274Z,4.90
2019-04-11T11:18:27.871Z,4.95
2019-04-11T11:20:45.530Z,4.97
2019-04-11T11:23:20.350Z,4.72
2019-04-11T11:26:05.091Z,4.83
2019-04-11T11:28:38.743Z,4.97
2019-04-11T11:31:29.901Z,4.33
2019-04-11T11:33:59.733Z,4.42
2019-04-11T11:36:49.949Z,4.92
2019-04-11T11:39:31.253Z,5.03
2019-04-11T11:42:19.888Z,5.10
2019-04-11T11:44:59.341Z,4.80
2019-04-11T11:47:55.250Z,4.85
2019-04-11T11:50:25.288Z,4.58
2019-04-11T11:53:13.389Z,4.70
2019-04-11T11:55:45.331Z,4.87
2019-04-11T11:58:33.436Z,5.25
2019-04-11T12:01:08.479Z,5.97
2019-04-11T12:04:00.167Z,5.12
2019-04-11T12:06:29.295Z,4.58
2019-04-11T12:09:18.240Z,4.75
2019-04-11T12:11:52.945Z,4.90
2019-04-11T12:14:35.220Z,4.30
2019-04-11T12:17:42.891Z,5.10
2019-04-11T12:20:20.848Z,4.28
2019-04-11T12:22:52.139Z,4.62
2019-04-11T12:25:25.726Z,4.15
2019-04-11T12:28:15.272Z,4.35
2019-04-11T12:30:48.155Z,4.00
2019-04-11T12:33:37.298Z,4.90
2019-04-11T12:36:09.809Z,5.25
2019-04-11T12:38:49.547Z,4.90
2019-04-11T12:41:27.928Z,5.10
2019-04-11T12:44:15.450Z,4.85
2019-04-11T12:47:12.601Z,4.95
2019-04-11T12:50:00.417Z,4.72
2019-04-11T12:52:42.173Z,4.12
2019-04-11T12:55:14.813Z,5.00
2019-04-11T12:58:07.961Z,4.87
2019-04-11T13:00:55.879Z,5.60
2019-04-11T13:03:56.813Z,4.90
2019-04-11T13:06:35.920Z,5.20
2019-04-11T13:09:26.198Z,5.45
2019-04-11T13:11:56.006Z,5.95
2019-04-11T13:15:00.449Z,4.30
2019-04-11T13:17:34.174Z,4.22
2019-04-11T13:20:29.673Z,4.70
2019-04-11T13:23:03.162Z,4.72
2019-04-11T13:25:54.000Z,5.33
2019-04-11T13:28:24.113Z,5.20
2019-04-11T13:31:12.956Z,5.30
2019-04-11T13:33:42.652Z,6.00
2019-04-11T13:36:27.553Z,6.42
2019-04-11T13:38:57.255Z,6.33
2019-04-11T13:41:34.025Z,5.85
2019-04-11T13:44:29.139Z,5.90
2019-04-11T13:47:19.214Z,6.05
2019-04-11T13:49:54.527Z,6.28
2019-04-11T13:52:43.312Z,5.87
2019-04-11T13:55:26.006Z,5.62
2019-04-11T13:58:14.799Z,6.80
2019-04-11T14:00:55.013Z,5.92
2019-04-11T14:03:44.057Z,6.12
2019-04-11T14:06:34.206Z,6.08
2019-04-11T14:09:33.490Z,5.65
2019-04-11T14:12:06.691Z,6.50
2019-04-11T14:14:45.170Z,6.15
2019-04-11T14:17:32.804Z,6.30
2019-04-11T14:20:29.592Z,6.10
2019-04-11T14:23:23.741Z,5.42
2019-04-11T14:26:12.306Z,5.72
2019-04-11T14:29:01.165Z,5.75
2019-04-11T14:31:55.825Z,5.12
2019-04-11T14:34:43.365Z,5.08
2019-04-11T14:37:38.831Z,4.97
2019-04-11T14:40:16.522Z,4.28
2019-04-11T14:43:03.945Z,5.22
2019-04-11T14:45:51.610Z,4.83
2019-04-11T14:48:37.819Z,4.55
2019-04-11T14:51:16.885Z,5.12
2019-04-11T14:53:57.480Z,4.72
2019-04-11T14:56:27.378Z,5.17
2019-04-11T14:59:15.136Z,5.60
2019-04-11T15:01:47.244Z,5.17
2019-04-11T15:04:51.411Z,4.65
2019-04-11T15:07:21.194Z,4.97
2019-04-11T15:10:18.984Z,4.62
2019-04-11T15:12:48.782Z,4.35
2019-04-11T15:15:39.491Z,4.53
2019-04-11T15:18:09.197Z,4.62
2019-04-11T15:21:07.505Z,4.87
2019-04-11T15:23:48.660Z,4.22
2019-04-11T15:26:55.556Z,4.42
2019-04-11T15:29:31.052Z,5.10
2019-04-11T15:32:26.481Z,4.58
2019-04-11T15:34:59.336Z,4.78
2019-04-11T15:37:48.193Z,4.72
2019-04-11T15:40:24.158Z,4.70
2019-04-11T15:43:11.569Z,4.72
2019-04-11T15:46:01.166Z,4.80
2019-04-11T15:48:58.202Z,5.00
2019-04-11T15:51:34.993Z,4.70
2019-04-11T15:54:26.734Z,4.08
2019-04-11T15:57:31.041Z,4.50
2019-04-11T16:00:14.537Z,4.58
2019-04-11T16:03:03.346Z,4.60
2019-04-11T16:05:52.113Z,4.58
2019-04-11T16:08:41.854Z,5.30
2019-04-11T16:11:32.517Z,4.35
2019-04-11T16:14:08.256Z,4.17
2019-04-11T16:16:56.272Z,3.85
2019-04-11T16:19:40.265Z,4.95
2019-04-11T16:22:28.014Z,5.17
2019-04-11T16:24:59.435Z,4.65
2019-04-11T16:27:48.242Z,4.45
2019-04-11T16:30:19.702Z,4.67
2019-04-11T16:33:03.393Z,4.70
2019-04-11T16:35:47.633Z,4.65
2019-04-11T16:38:19.532Z,3.52
2019-04-11T16:41:11.482Z,4.12
2019-04-11T16:43:42.050Z,4.47
2019-04-11T16:46:39.736Z,4.20
2019-04-11T16:49:09.437Z,3.92
2019-04-11T16:51:39.133Z,3.55
2019-04-11T16:54:09.741Z,3.40
2019-04-11T16:56:41.752Z,3.45
2019-04-11T16:59:11.557Z,3.77
2019-04-11T17:01:41.256Z,3.58
2019-04-11T17:04:10.985Z,3.20
2019-04-11T17:06:55.620Z,3.60
2019-04-11T17:09:33.755Z,3.35
2019-04-11T17:12:03.533Z,3.85
2019-04-11T17:14:33.748Z,3.42
2019-04-11T17:17:14.530Z,3.45
2019-04-11T17:19:36.273Z,3.37
2019-04-11T17:22:08.217Z,3.72
2019-04-11T17:24:38.295Z,4.12
2019-04-11T17:27:07.993Z,3.63
2019-04-11T17:29:37.710Z,4.70
2019-04-11T17:32:07.540Z,4.77
2019-04-11T17:34:37.337Z,4.08
2019-04-11T17:37:07.113Z,3.37
2019-04-11T17:39:37.357Z,3.20
2019-04-11T17:42:08.256Z,3.83
2019-04-11T17:44:39.036Z,3.50
2019-04-11T17:47:08.816Z,3.12
2019-04-11T17:49:38.869Z,3.90
2019-04-11T17:52:08.913Z,3.50
2019-04-11T17:54:38.644Z,3.30
2019-04-11T17:57:08.359Z,3.05
2019-04-11T17:59:38.133Z,3.22
2019-04-11T18:02:10.396Z,2.80
2019-04-11T18:04:44.018Z,3.02
2019-04-11T18:07:12.374Z,3.15
2019-04-11T18:09:42.070Z,2.52
2019-04-11T18:12:11.956Z,3.27
2019-04-11T18:14:41.654Z,2.42
2019-04-11T18:17:11.361Z,3.15
2019-04-11T18:19:41.085Z,3.20
2019-04-11T18:22:13.357Z,2.80
2019-04-11T18:24:42.430Z,3.50
2019-04-11T18:27:12.306Z,3.47
2019-04-11T18:29:42.107Z,3.05
2019-04-11T18:32:11.884Z,3.05
2019-04-11T18:34:41.652Z,3.63
2019-04-11T18:37:11.437Z,3.75
2019-04-11T18:39:41.136Z,3.80
2019-04-11T18:42:10.934Z,3.67
2019-04-11T18:44:40.737Z,3.67
2019-04-11T18:47:10.535Z,8.47
2019-04-11T18:49:40.303Z,3.50
2019-04-11T18:52:19.174Z,3.40
2019-04-11T18:54:41.564Z,3.00
2019-04-11T18:57:12.264Z,2.87
2019-04-11T18:59:43.050Z,3.00
2019-04-11T19:02:13.037Z,3.10
2019-04-11T19:04:42.915Z,2.98
2019-04-11T19:07:13.767Z,2.45
2019-04-11T19:09:44.420Z,2.45
2019-04-11T19:12:15.812Z,2.97
2019-04-11T19:14:47.178Z,3.05
2019-04-11T19:17:17.084Z,2.87
2019-04-11T19:19:48.841Z,2.72
2019-04-11T19:22:19.675Z,3.08
2019-04-11T19:24:49.828Z,2.50
2019-04-11T19:27:20.540Z,3.25
2019-04-11T19:29:50.538Z,3.55
2019-04-11T19:32:20.310Z,3.27
2019-04-11T19:34:50.327Z,2.87
2019-04-11T19:37:20.125Z,3.02
2019-04-11T19:39:50.571Z,2.40
2019-04-11T19:42:20.318Z,2.75
2019-04-11T19:44:50.351Z,3.80
2019-04-11T19:47:21.700Z,3.08
2019-04-11T19:49:51.631Z,2.40
2019-04-11T19:52:21.340Z,2.17
2019-04-11T19:54:51.125Z,2.60
2019-04-11T19:57:20.972Z,2.90
2019-04-11T19:59:50.815Z,2.75
2019-04-11T20:02:23.374Z,2.37
2019-04-11T20:04:51.945Z,2.47
2019-04-11T20:07:21.646Z,2.73
2019-04-11T20:09:51.363Z,2.58
2019-04-11T20:12:21.322Z,2.92
2019-04-11T20:14:51.119Z,2.35
2019-04-11T20:17:20.809Z,2.60
2019-04-11T20:20:00.891Z,2.90
2019-04-11T20:22:21.955Z,3.10
2019-04-11T20:24:51.759Z,2.45
2019-04-11T20:27:21.502Z,2.93
2019-04-11T20:29:55.077Z,2.90
2019-04-11T20:32:23.113Z,2.65
2019-04-11T20:34:54.392Z,2.85
2019-04-11T20:37:24.588Z,2.87
2019-04-11T20:39:55.616Z,2.33
2019-04-11T20:42:25.380Z,2.50
2019-04-11T20:44:58.252Z,3.25
2019-04-11T20:47:28.877Z,2.80
2019-04-11T20:49:58.027Z,2.70
2019-04-11T20:52:27.724Z,2.90
2019-04-11T20:54:57.498Z,2.60
2019-04-11T20:57:27.308Z,2.35
2019-04-11T20:59:56.998Z,3.00
2019-04-11T21:02:29.099Z,2.77
2019-04-11T21:04:58.967Z,2.60
2019-04-11T21:07:31.909Z,2.80
2019-04-11T21:10:04.018Z,2.67
2019-04-11T21:12:32.549Z,2.67
2019-04-11T21:15:02.831Z,2.52
2019-04-11T21:17:32.521Z,2.27
2019-04-11T21:20:02.205Z,2.30
2019-04-11T21:22:31.913Z,2.67
2019-04-11T21:25:01.690Z,2.70
2019-04-11T21:27:31.503Z,2.50
2019-04-11T21:30:01.259Z,2.27
2019-04-11T21:32:32.700Z,2.53
2019-04-11T21:35:03.084Z,2.57
2019-04-11T21:37:36.577Z,2.62
2019-04-11T21:40:06.273Z,2.50
2019-04-11T21:42:36.750Z,3.10
2019-04-11T21:45:07.087Z,2.50
2019-04-11T21:47:37.867Z,2.47
2019-04-11T21:50:09.585Z,2.60
2019-04-11T21:52:43.456Z,3.15
2019-04-11T21:55:16.104Z,2.40
2019-04-11T21:57:48.860Z,2.75
2019-04-11T22:00:24.868Z,2.00
2019-04-11T22:02:56.264Z,2.30
2019-04-11T22:05:28.987Z,2.25
2019-04-11T22:07:57.612Z,2.27
2019-04-11T22:10:27.513Z,2.55
2019-04-11T22:12:57.224Z,2.05
2019-04-11T22:15:27.135Z,1.90
2019-04-11T22:17:56.868Z,2.70
2019-04-11T22:20:26.905Z,2.10
2019-04-11T22:22:56.617Z,2.27
2019-04-11T22:25:26.381Z,2.00
2019-04-11T22:27:56.166Z,2.08
2019-04-11T22:30:26.061Z,2.35
2019-04-11T22:33:07.077Z,2.07
2019-04-11T22:35:36.845Z,2.80
2019-04-11T22:38:06.633Z,2.10
2019-04-11T22:40:36.410Z,2.70
2019-04-11T22:43:08.120Z,2.20
2019-04-11T22:45:38.371Z,2.00
2019-04-11T22:48:08.813Z,1.90
2019-04-11T22:50:40.667Z,1.70
2019-04-11T22:53:12.866Z,2.00
2019-04-11T22:55:41.932Z,2.10
2019-04-11T22:58:13.946Z,2.05
2019-04-11T23:00:45.783Z,1.90
2019-04-11T23:03:18.777Z,1.80
2019-04-11T23:05:48.563Z,1.60
2019-04-11T23:08:19.267Z,1.80
2019-04-11T23:10:49.765Z,2.08
2019-04-11T23:13:19.529Z,1.83
2019-04-11T23:15:49.348Z,1.70
2019-04-11T23:18:20.704Z,1.60
2019-04-11T23:20:50.493Z,1.95
2019-04-11T23:23:20.261Z,2.00
2019-04-11T23:25:49.983Z,1.77
2019-04-11T23:28:19.672Z,1.70
2019-04-11T23:30:50.335Z,1.92
2019-04-11T23:33:21.470Z,1.72
2019-04-11T23:35:51.937Z,1.70
2019-04-11T23:38:23.930Z,1.50
2019-04-11T23:40:53.124Z,1.70
2019-04-11T23:43:22.839Z,1.80
2019-04-11T23:45:53.045Z,1.87
2019-04-11T23:48:24.094Z,1.40
2019-04-11T23:50:55.304Z,1.60
2019-04-11T23:53:28.159Z,1.75
2019-04-11T23:55:59.881Z,1.57
2019-04-11T23:58:31.847Z,1.63
